sensor_id;sensor_type;location;lat;lon;timestamp;P1;durP1;ratioP1;P2;durP2;ratioP2
70707;SDS011;58277;47.316;18.908;2023-01-15T00:00:26;93.73;;;17.50;;
70707;SDS011;58277;47.316;18.908;2023-01-15T00:02:49;52.70;;;15.68;;
70707;SDS011;58277;47.316;18.908;2023-01-15T00:05:12;58.72;;;16.75;;
70707;SDS011;58277;47.316;18.908;2023-01-15T00:07:35;76.07;;;16.83;;
70707;SDS011;58277;47.316;18.908;2023-01-15T00:10:00;58.65;;;15.55;;
70707;SDS011;58277;47.316;18.908;2023-01-15T00:12:24;48.33;;;15.33;;
70707;SDS011;58277;47.316;18.908;2023-01-15T00:14:46;51.33;;;14.65;;
70707;SDS011;58277;47.316;18.908;2023-01-15T00:17:09;52.42;;;15.10;;
70707;SDS011;58277;47.316;18.908;2023-01-15T00:19:32;57.30;;;15.32;;
70707;SDS011;58277;47.316;18.908;2023-01-15T00:21:55;64.63;;;15.30;;
70707;SDS011;58277;47.316;18.908;2023-01-15T00:24:19;57.57;;;14.80;;
70707;SDS011;58277;47.316;18.908;2023-01-15T00:27:00;48.78;;;14.00;;
70707;SDS011;58277;47.316;18.908;2023-01-15T00:29:42;46.60;;;14.23;;
70707;SDS011;58277;47.316;18.908;2023-01-15T00:32:06;60.22;;;14.45;;
70707;SDS011;58277;47.316;18.908;2023-01-15T00:34:30;59.72;;;15.13;;
70707;SDS011;58277;47.316;18.908;2023-01-15T00:36:54;49.73;;;15.20;;
70707;SDS011;58277;47.316;18.908;2023-01-15T00:39:17;46.15;;;13.10;;
70707;SDS011;58277;47.316;18.908;2023-01-15T00:41:41;49.20;;;14.73;;
70707;SDS011;58277;47.316;18.908;2023-01-15T00:44:03;40.97;;;12.70;;
70707;SDS011;58277;47.316;18.908;2023-01-15T00:46:26;51.92;;;14.30;;
70707;SDS011;58277;47.316;18.908;2023-01-15T00:48:49;40.37;;;13.30;;
70707;SDS011;58277;47.316;18.908;2023-01-15T00:51:12;38.22;;;13.02;;
70707;SDS011;58277;47.316;18.908;2023-01-15T00:53:34;40.22;;;13.15;;
70707;SDS011;58277;47.316;18.908;2023-01-15T00:55:58;40.80;;;12.68;;
70707;SDS011;58277;47.316;18.908;2023-01-15T00:58:22;47.13;;;12.95;;
70707;SDS011;58277;47.316;18.908;2023-01-15T01:00:45;42.63;;;12.93;;
70707;SDS011;58277;47.316;18.908;2023-01-15T01:03:08;41.88;;;12.63;;
70707;SDS011;58277;47.316;18.908;2023-01-15T01:05:33;39.97;;;12.45;;
70707;SDS011;58277;47.316;18.908;2023-01-15T01:07:56;44.35;;;12.90;;
70707;SDS011;58277;47.316;18.908;2023-01-15T01:10:21;45.42;;;12.65;;
70707;SDS011;58277;47.316;18.908;2023-01-15T01:12:45;37.57;;;12.87;;
70707;SDS011;58277;47.316;18.908;2023-01-15T01:15:09;33.88;;;11.93;;
70707;SDS011;58277;47.316;18.908;2023-01-15T01:17:32;37.67;;;12.57;;
70707;SDS011;58277;47.316;18.908;2023-01-15T01:19:55;36.90;;;11.63;;
70707;SDS011;58277;47.316;18.908;2023-01-15T01:22:18;38.05;;;11.90;;
70707;SDS011;58277;47.316;18.908;2023-01-15T01:24:40;31.27;;;10.93;;
70707;SDS011;58277;47.316;18.908;2023-01-15T01:27:03;40.80;;;12.05;;
70707;SDS011;58277;47.316;18.908;2023-01-15T01:29:26;33.63;;;11.55;;
70707;SDS011;58277;47.316;18.908;2023-01-15T01:31:49;33.42;;;10.85;;
70707;SDS011;58277;47.316;18.908;2023-01-15T01:34:13;34.95;;;11.38;;
70707;SDS011;58277;47.316;18.908;2023-01-15T01:36:36;39.43;;;10.90;;
70707;SDS011;58277;47.316;18.908;2023-01-15T01:39:01;53.90;;;12.00;;
70707;SDS011;58277;47.316;18.908;2023-01-15T01:41:26;34.65;;;10.93;;
70707;SDS011;58277;47.316;18.908;2023-01-15T01:43:57;39.03;;;12.02;;
70707;SDS011;58277;47.316;18.908;2023-01-15T01:46:25;44.72;;;12.30;;
70707;SDS011;58277;47.316;18.908;2023-01-15T01:48:50;52.93;;;11.97;;
70707;SDS011;58277;47.316;18.908;2023-01-15T01:51:21;39.78;;;11.77;;
70707;SDS011;58277;47.316;18.908;2023-01-15T01:53:47;38.92;;;12.70;;
70707;SDS011;58277;47.316;18.908;2023-01-15T01:56:11;38.28;;;12.05;;
70707;SDS011;58277;47.316;18.908;2023-01-15T01:58:34;36.85;;;11.50;;
70707;SDS011;58277;47.316;18.908;2023-01-15T02:00:57;40.67;;;11.73;;
70707;SDS011;58277;47.316;18.908;2023-01-15T02:03:21;32.63;;;11.93;;
70707;SDS011;58277;47.316;18.908;2023-01-15T02:05:51;42.75;;;11.82;;
70707;SDS011;58277;47.316;18.908;2023-01-15T02:08:16;55.10;;;12.68;;
70707;SDS011;58277;47.316;18.908;2023-01-15T02:10:41;35.05;;;11.35;;
70707;SDS011;58277;47.316;18.908;2023-01-15T02:15:42;35.35;;;11.43;;
70707;SDS011;58277;47.316;18.908;2023-01-15T02:18:21;41.95;;;11.02;;
70707;SDS011;58277;47.316;18.908;2023-01-15T02:20:54;41.38;;;11.88;;
70707;SDS011;58277;47.316;18.908;2023-01-15T02:28:42;37.90;;;11.25;;
70707;SDS011;58277;47.316;18.908;2023-01-15T02:31:20;39.53;;;10.45;;
70707;SDS011;58277;47.316;18.908;2023-01-15T02:34:03;39.72;;;10.75;;
70707;SDS011;58277;47.316;18.908;2023-01-15T02:36:32;35.22;;;11.73;;
70707;SDS011;58277;47.316;18.908;2023-01-15T02:39:01;49.20;;;11.57;;
70707;SDS011;58277;47.316;18.908;2023-01-15T02:41:29;44.63;;;11.85;;
70707;SDS011;58277;47.316;18.908;2023-01-15T02:43:56;46.53;;;11.18;;
70707;SDS011;58277;47.316;18.908;2023-01-15T02:46:24;37.35;;;10.23;;
70707;SDS011;58277;47.316;18.908;2023-01-15T02:48:51;46.55;;;12.07;;
70707;SDS011;58277;47.316;18.908;2023-01-15T02:51:18;38.50;;;11.60;;
70707;SDS011;58277;47.316;18.908;2023-01-15T02:53:45;36.60;;;11.15;;
70707;SDS011;58277;47.316;18.908;2023-01-15T02:56:14;45.25;;;11.25;;
70707;SDS011;58277;47.316;18.908;2023-01-15T02:58:46;40.50;;;11.15;;
70707;SDS011;58277;47.316;18.908;2023-01-15T03:01:18;37.72;;;11.88;;
70707;SDS011;58277;47.316;18.908;2023-01-15T03:03:57;41.93;;;10.77;;
70707;SDS011;58277;47.316;18.908;2023-01-15T03:06:32;32.83;;;10.18;;
70707;SDS011;58277;47.316;18.908;2023-01-15T03:09:02;46.70;;;11.43;;
70707;SDS011;58277;47.316;18.908;2023-01-15T03:11:27;36.47;;;10.45;;
70707;SDS011;58277;47.316;18.908;2023-01-15T03:14:01;32.97;;;10.98;;
70707;SDS011;58277;47.316;18.908;2023-01-15T03:16:32;37.50;;;10.63;;
70707;SDS011;58277;47.316;18.908;2023-01-15T03:24:14;36.67;;;11.00;;
70707;SDS011;58277;47.316;18.908;2023-01-15T03:26:42;33.35;;;10.27;;
70707;SDS011;58277;47.316;18.908;2023-01-15T03:29:06;41.37;;;11.40;;
70707;SDS011;58277;47.316;18.908;2023-01-15T03:31:32;37.90;;;11.20;;
70707;SDS011;58277;47.316;18.908;2023-01-15T03:33:55;37.92;;;11.35;;
70707;SDS011;58277;47.316;18.908;2023-01-15T03:36:18;39.33;;;11.77;;
70707;SDS011;58277;47.316;18.908;2023-01-15T03:38:43;36.20;;;11.55;;
70707;SDS011;58277;47.316;18.908;2023-01-15T03:44:26;34.17;;;11.18;;
70707;SDS011;58277;47.316;18.908;2023-01-15T03:52:36;34.30;;;11.82;;
70707;SDS011;58277;47.316;18.908;2023-01-15T03:55:24;40.10;;;11.97;;
70707;SDS011;58277;47.316;18.908;2023-01-15T03:57:58;35.47;;;10.73;;
70707;SDS011;58277;47.316;18.908;2023-01-15T04:00:36;44.97;;;10.90;;
70707;SDS011;58277;47.316;18.908;2023-01-15T04:03:03;33.30;;;10.38;;
70707;SDS011;58277;47.316;18.908;2023-01-15T04:05:28;29.27;;;9.88;;
70707;SDS011;58277;47.316;18.908;2023-01-15T04:07:53;26.93;;;9.37;;
70707;SDS011;58277;47.316;18.908;2023-01-15T04:10:21;42.00;;;10.15;;
70707;SDS011;58277;47.316;18.908;2023-01-15T04:12:46;27.90;;;9.88;;
70707;SDS011;58277;47.316;18.908;2023-01-15T04:15:09;32.90;;;10.40;;
70707;SDS011;58277;47.316;18.908;2023-01-15T04:17:33;32.05;;;9.82;;
70707;SDS011;58277;47.316;18.908;2023-01-15T04:19:59;33.23;;;9.63;;
70707;SDS011;58277;47.316;18.908;2023-01-15T04:22:24;28.50;;;9.35;;
70707;SDS011;58277;47.316;18.908;2023-01-15T04:24:47;26.48;;;9.45;;
70707;SDS011;58277;47.316;18.908;2023-01-15T04:27:10;30.38;;;9.48;;
70707;SDS011;58277;47.316;18.908;2023-01-15T04:29:36;27.40;;;9.00;;
70707;SDS011;58277;47.316;18.908;2023-01-15T04:31:59;33.77;;;9.77;;
70707;SDS011;58277;47.316;18.908;2023-01-15T04:34:25;32.05;;;9.70;;
70707;SDS011;58277;47.316;18.908;2023-01-15T04:36:49;29.50;;;10.15;;
70707;SDS011;58277;47.316;18.908;2023-01-15T04:39:12;24.92;;;9.50;;
70707;SDS011;58277;47.316;18.908;2023-01-15T04:41:35;32.85;;;9.48;;
70707;SDS011;58277;47.316;18.908;2023-01-15T04:44:17;28.80;;;9.37;;
70707;SDS011;58277;47.316;18.908;2023-01-15T04:46:40;29.05;;;9.32;;
70707;SDS011;58277;47.316;18.908;2023-01-15T04:49:10;33.70;;;9.90;;
70707;SDS011;58277;47.316;18.908;2023-01-15T04:51:34;30.00;;;9.75;;
70707;SDS011;58277;47.316;18.908;2023-01-15T04:53:57;27.35;;;9.70;;
70707;SDS011;58277;47.316;18.908;2023-01-15T04:56:20;31.90;;;9.70;;
70707;SDS011;58277;47.316;18.908;2023-01-15T04:58:43;26.98;;;9.00;;
70707;SDS011;58277;47.316;18.908;2023-01-15T05:01:12;28.83;;;10.35;;
70707;SDS011;58277;47.316;18.908;2023-01-15T05:03:37;29.88;;;9.45;;
70707;SDS011;58277;47.316;18.908;2023-01-15T05:06:00;26.73;;;8.95;;
70707;SDS011;58277;47.316;18.908;2023-01-15T05:08:23;29.63;;;9.70;;
70707;SDS011;58277;47.316;18.908;2023-01-15T05:10:46;28.13;;;10.15;;
70707;SDS011;58277;47.316;18.908;2023-01-15T05:13:09;31.92;;;9.77;;
70707;SDS011;58277;47.316;18.908;2023-01-15T05:15:31;34.35;;;9.93;;
70707;SDS011;58277;47.316;18.908;2023-01-15T05:17:55;28.30;;;9.63;;
70707;SDS011;58277;47.316;18.908;2023-01-15T05:20:18;31.53;;;9.17;;
70707;SDS011;58277;47.316;18.908;2023-01-15T05:22:41;27.60;;;9.50;;
70707;SDS011;58277;47.316;18.908;2023-01-15T05:25:04;27.65;;;9.68;;
70707;SDS011;58277;47.316;18.908;2023-01-15T05:27:28;30.77;;;9.73;;
70707;SDS011;58277;47.316;18.908;2023-01-15T05:29:54;30.90;;;9.43;;
70707;SDS011;58277;47.316;18.908;2023-01-15T05:32:16;30.37;;;9.83;;
70707;SDS011;58277;47.316;18.908;2023-01-15T05:34:39;32.42;;;9.98;;
70707;SDS011;58277;47.316;18.908;2023-01-15T05:37:02;34.42;;;10.05;;
70707;SDS011;58277;47.316;18.908;2023-01-15T05:39:24;28.63;;;9.68;;
70707;SDS011;58277;47.316;18.908;2023-01-15T05:41:47;29.65;;;9.40;;
70707;SDS011;58277;47.316;18.908;2023-01-15T05:44:10;31.17;;;10.30;;
70707;SDS011;58277;47.316;18.908;2023-01-15T05:46:35;29.65;;;9.63;;
70707;SDS011;58277;47.316;18.908;2023-01-15T05:48:59;36.88;;;10.73;;
70707;SDS011;58277;47.316;18.908;2023-01-15T05:51:23;31.23;;;9.82;;
70707;SDS011;58277;47.316;18.908;2023-01-15T05:53:46;33.20;;;9.88;;
70707;SDS011;58277;47.316;18.908;2023-01-15T05:56:08;27.57;;;9.17;;
70707;SDS011;58277;47.316;18.908;2023-01-15T05:58:31;32.92;;;10.23;;
70707;SDS011;58277;47.316;18.908;2023-01-15T06:00:54;29.77;;;10.00;;
70707;SDS011;58277;47.316;18.908;2023-01-15T06:03:17;26.67;;;9.73;;
70707;SDS011;58277;47.316;18.908;2023-01-15T06:05:40;27.40;;;9.20;;
70707;SDS011;58277;47.316;18.908;2023-01-15T06:08:03;29.77;;;10.10;;
70707;SDS011;58277;47.316;18.908;2023-01-15T06:10:26;33.22;;;10.43;;
70707;SDS011;58277;47.316;18.908;2023-01-15T06:12:48;32.40;;;10.60;;
70707;SDS011;58277;47.316;18.908;2023-01-15T06:15:11;30.15;;;9.90;;
70707;SDS011;58277;47.316;18.908;2023-01-15T06:17:34;31.15;;;10.18;;
70707;SDS011;58277;47.316;18.908;2023-01-15T06:19:58;29.93;;;9.93;;
70707;SDS011;58277;47.316;18.908;2023-01-15T06:22:21;33.08;;;10.95;;
70707;SDS011;58277;47.316;18.908;2023-01-15T06:24:44;32.60;;;10.60;;
70707;SDS011;58277;47.316;18.908;2023-01-15T06:27:07;32.80;;;11.00;;
70707;SDS011;58277;47.316;18.908;2023-01-15T06:29:30;36.63;;;11.50;;
70707;SDS011;58277;47.316;18.908;2023-01-15T06:31:53;35.67;;;11.37;;
70707;SDS011;58277;47.316;18.908;2023-01-15T06:34:15;36.05;;;11.55;;
70707;SDS011;58277;47.316;18.908;2023-01-15T06:36:38;32.40;;;11.30;;
70707;SDS011;58277;47.316;18.908;2023-01-15T06:39:01;32.08;;;11.27;;
70707;SDS011;58277;47.316;18.908;2023-01-15T06:41:26;35.70;;;11.40;;
70707;SDS011;58277;47.316;18.908;2023-01-15T06:44:15;32.57;;;11.63;;
70707;SDS011;58277;47.316;18.908;2023-01-15T06:46:57;35.17;;;11.82;;
70707;SDS011;58277;47.316;18.908;2023-01-15T06:49:42;32.65;;;11.43;;
70707;SDS011;58277;47.316;18.908;2023-01-15T06:52:05;36.65;;;13.07;;
70707;SDS011;58277;47.316;18.908;2023-01-15T06:54:28;38.60;;;12.45;;
70707;SDS011;58277;47.316;18.908;2023-01-15T06:56:51;41.43;;;12.13;;
70707;SDS011;58277;47.316;18.908;2023-01-15T06:59:14;39.10;;;12.70;;
70707;SDS011;58277;47.316;18.908;2023-01-15T07:01:37;37.10;;;12.52;;
70707;SDS011;58277;47.316;18.908;2023-01-15T07:04:00;35.22;;;12.38;;
70707;SDS011;58277;47.316;18.908;2023-01-15T07:06:23;38.38;;;13.60;;
70707;SDS011;58277;47.316;18.908;2023-01-15T07:08:47;39.53;;;12.70;;
70707;SDS011;58277;47.316;18.908;2023-01-15T07:11:10;38.60;;;13.68;;
70707;SDS011;58277;47.316;18.908;2023-01-15T07:13:33;36.55;;;12.43;;
70707;SDS011;58277;47.316;18.908;2023-01-15T07:15:57;35.80;;;12.57;;
70707;SDS011;58277;47.316;18.908;2023-01-15T07:18:20;40.78;;;13.27;;
70707;SDS011;58277;47.316;18.908;2023-01-15T07:20:43;36.13;;;12.97;;
70707;SDS011;58277;47.316;18.908;2023-01-15T07:23:06;36.08;;;11.88;;
70707;SDS011;58277;47.316;18.908;2023-01-15T07:25:29;41.00;;;14.00;;
70707;SDS011;58277;47.316;18.908;2023-01-15T07:27:51;40.13;;;14.20;;
70707;SDS011;58277;47.316;18.908;2023-01-15T07:30:15;34.30;;;11.68;;
70707;SDS011;58277;47.316;18.908;2023-01-15T07:32:40;35.97;;;12.80;;
70707;SDS011;58277;47.316;18.908;2023-01-15T07:35:03;38.53;;;12.88;;
70707;SDS011;58277;47.316;18.908;2023-01-15T07:37:26;38.28;;;13.23;;
70707;SDS011;58277;47.316;18.908;2023-01-15T07:39:50;37.42;;;12.77;;
70707;SDS011;58277;47.316;18.908;2023-01-15T07:42:12;39.15;;;14.02;;
70707;SDS011;58277;47.316;18.908;2023-01-15T07:44:54;44.70;;;13.07;;
70707;SDS011;58277;47.316;18.908;2023-01-15T07:47:35;34.75;;;12.73;;
70707;SDS011;58277;47.316;18.908;2023-01-15T07:50:22;39.92;;;13.43;;
70707;SDS011;58277;47.316;18.908;2023-01-15T07:52:49;35.25;;;13.18;;
70707;SDS011;58277;47.316;18.908;2023-01-15T07:55:14;37.97;;;13.70;;
70707;SDS011;58277;47.316;18.908;2023-01-15T07:57:37;40.57;;;14.20;;
70707;SDS011;58277;47.316;18.908;2023-01-15T08:00:07;39.80;;;13.23;;
70707;SDS011;58277;47.316;18.908;2023-01-15T08:02:36;37.72;;;13.73;;
70707;SDS011;58277;47.316;18.908;2023-01-15T08:04:58;38.65;;;13.80;;
70707;SDS011;58277;47.316;18.908;2023-01-15T08:07:21;39.47;;;13.85;;
70707;SDS011;58277;47.316;18.908;2023-01-15T08:09:45;36.37;;;13.47;;
70707;SDS011;58277;47.316;18.908;2023-01-15T08:12:08;37.85;;;13.35;;
70707;SDS011;58277;47.316;18.908;2023-01-15T08:14:50;39.60;;;14.07;;
70707;SDS011;58277;47.316;18.908;2023-01-15T08:17:32;36.17;;;13.35;;
70707;SDS011;58277;47.316;18.908;2023-01-15T08:20:07;40.80;;;13.75;;
70707;SDS011;58277;47.316;18.908;2023-01-15T08:22:32;38.83;;;13.40;;
70707;SDS011;58277;47.316;18.908;2023-01-15T08:24:55;34.58;;;12.85;;
70707;SDS011;58277;47.316;18.908;2023-01-15T08:27:18;35.15;;;12.82;;
70707;SDS011;58277;47.316;18.908;2023-01-15T08:29:44;39.35;;;13.60;;
70707;SDS011;58277;47.316;18.908;2023-01-15T08:32:07;35.75;;;13.25;;
70707;SDS011;58277;47.316;18.908;2023-01-15T08:34:30;33.00;;;13.57;;
70707;SDS011;58277;47.316;18.908;2023-01-15T08:36:53;37.42;;;13.80;;
70707;SDS011;58277;47.316;18.908;2023-01-15T08:39:20;32.45;;;12.70;;
70707;SDS011;58277;47.316;18.908;2023-01-15T08:41:43;35.40;;;13.30;;
70707;SDS011;58277;47.316;18.908;2023-01-15T08:44:06;36.42;;;14.63;;
70707;SDS011;58277;47.316;18.908;2023-01-15T08:46:29;37.10;;;13.97;;
70707;SDS011;58277;47.316;18.908;2023-01-15T08:48:51;39.20;;;14.13;;
70707;SDS011;58277;47.316;18.908;2023-01-15T08:51:14;36.95;;;13.85;;
70707;SDS011;58277;47.316;18.908;2023-01-15T08:53:37;34.97;;;13.77;;
70707;SDS011;58277;47.316;18.908;2023-01-15T08:56:00;36.17;;;14.27;;
70707;SDS011;58277;47.316;18.908;2023-01-15T08:58:43;36.77;;;13.60;;
70707;SDS011;58277;47.316;18.908;2023-01-15T09:01:26;34.47;;;13.73;;
70707;SDS011;58277;47.316;18.908;2023-01-15T09:03:49;34.92;;;13.20;;
70707;SDS011;58277;47.316;18.908;2023-01-15T09:06:11;32.63;;;12.40;;
70707;SDS011;58277;47.316;18.908;2023-01-15T09:08:34;29.42;;;12.60;;
70707;SDS011;58277;47.316;18.908;2023-01-15T09:10:57;31.27;;;12.30;;
70707;SDS011;58277;47.316;18.908;2023-01-15T09:13:21;36.08;;;12.27;;
70707;SDS011;58277;47.316;18.908;2023-01-15T09:15:44;30.52;;;12.40;;
70707;SDS011;58277;47.316;18.908;2023-01-15T09:18:06;33.95;;;12.88;;
70707;SDS011;58277;47.316;18.908;2023-01-15T09:20:31;28.58;;;11.77;;
70707;SDS011;58277;47.316;18.908;2023-01-15T09:22:55;30.43;;;12.17;;
70707;SDS011;58277;47.316;18.908;2023-01-15T09:25:18;30.60;;;12.55;;
70707;SDS011;58277;47.316;18.908;2023-01-15T09:27:41;28.98;;;12.48;;
70707;SDS011;58277;47.316;18.908;2023-01-15T09:30:04;29.95;;;12.43;;
70707;SDS011;58277;47.316;18.908;2023-01-15T09:32:28;30.95;;;12.45;;
70707;SDS011;58277;47.316;18.908;2023-01-15T09:34:51;30.20;;;11.97;;
70707;SDS011;58277;47.316;18.908;2023-01-15T09:37:14;26.95;;;11.25;;
70707;SDS011;58277;47.316;18.908;2023-01-15T09:39:38;28.95;;;12.35;;
70707;SDS011;58277;47.316;18.908;2023-01-15T09:42:07;26.15;;;11.30;;
70707;SDS011;58277;47.316;18.908;2023-01-15T09:55:14;26.65;;;10.82;;
70707;SDS011;58277;47.316;18.908;2023-01-15T09:57:39;30.52;;;11.15;;
70707;SDS011;58277;47.316;18.908;2023-01-15T10:00:04;30.37;;;11.60;;
70707;SDS011;58277;47.316;18.908;2023-01-15T10:02:40;27.63;;;11.45;;
70707;SDS011;58277;47.316;18.908;2023-01-15T10:08:10;26.25;;;10.60;;
70707;SDS011;58277;47.316;18.908;2023-01-15T10:10:41;27.25;;;10.88;;
70707;SDS011;58277;47.316;18.908;2023-01-15T10:13:16;25.47;;;10.53;;
70707;SDS011;58277;47.316;18.908;2023-01-15T10:15:47;25.40;;;11.02;;
70707;SDS011;58277;47.316;18.908;2023-01-15T10:18:14;24.45;;;10.38;;
70707;SDS011;58277;47.316;18.908;2023-01-15T10:20:47;26.08;;;10.52;;
70707;SDS011;58277;47.316;18.908;2023-01-15T10:36:36;24.73;;;10.60;;
70707;SDS011;58277;47.316;18.908;2023-01-15T10:47:02;22.23;;;10.05;;
70707;SDS011;58277;47.316;18.908;2023-01-15T10:49:33;22.48;;;10.02;;
70707;SDS011;58277;47.316;18.908;2023-01-15T10:52:02;21.83;;;9.30;;
70707;SDS011;58277;47.316;18.908;2023-01-15T10:54:30;19.10;;;8.07;;
70707;SDS011;58277;47.316;18.908;2023-01-15T10:57:00;23.70;;;10.27;;
70707;SDS011;58277;47.316;18.908;2023-01-15T10:59:56;25.20;;;9.82;;
70707;SDS011;58277;47.316;18.908;2023-01-15T11:05:05;25.10;;;10.37;;
70707;SDS011;58277;47.316;18.908;2023-01-15T11:07:35;22.23;;;9.60;;
70707;SDS011;58277;47.316;18.908;2023-01-15T11:10:22;23.40;;;9.88;;
70707;SDS011;58277;47.316;18.908;2023-01-15T11:15:30;22.70;;;9.45;;
70707;SDS011;58277;47.316;18.908;2023-01-15T11:18:16;21.70;;;9.50;;
70707;SDS011;58277;47.316;18.908;2023-01-15T11:21:11;22.67;;;9.20;;
70707;SDS011;58277;47.316;18.908;2023-01-15T11:23:39;22.52;;;9.88;;
70707;SDS011;58277;47.316;18.908;2023-01-15T11:26:01;21.42;;;9.63;;
70707;SDS011;58277;47.316;18.908;2023-01-15T11:28:32;22.38;;;9.45;;
70707;SDS011;58277;47.316;18.908;2023-01-15T11:30:57;20.33;;;9.17;;
70707;SDS011;58277;47.316;18.908;2023-01-15T11:33:24;21.02;;;9.65;;
70707;SDS011;58277;47.316;18.908;2023-01-15T11:35:50;20.55;;;9.90;;
70707;SDS011;58277;47.316;18.908;2023-01-15T11:38:20;19.75;;;9.40;;
70707;SDS011;58277;47.316;18.908;2023-01-15T11:41:19;21.00;;;9.75;;
70707;SDS011;58277;47.316;18.908;2023-01-15T11:43:52;18.87;;;8.60;;
70707;SDS011;58277;47.316;18.908;2023-01-15T11:46:34;23.65;;;9.38;;
70707;SDS011;58277;47.316;18.908;2023-01-15T11:49:17;19.50;;;8.63;;
70707;SDS011;58277;47.316;18.908;2023-01-15T11:51:59;21.23;;;8.80;;
70707;SDS011;58277;47.316;18.908;2023-01-15T11:54:23;22.58;;;8.52;;
70707;SDS011;58277;47.316;18.908;2023-01-15T11:56:47;17.77;;;8.77;;
70707;SDS011;58277;47.316;18.908;2023-01-15T11:59:11;18.23;;;8.13;;
70707;SDS011;58277;47.316;18.908;2023-01-15T12:01:36;17.92;;;9.13;;
70707;SDS011;58277;47.316;18.908;2023-01-15T12:04:05;17.77;;;8.68;;
70707;SDS011;58277;47.316;18.908;2023-01-15T12:06:43;19.52;;;8.60;;
70707;SDS011;58277;47.316;18.908;2023-01-15T12:12:09;18.40;;;7.43;;
70707;SDS011;58277;47.316;18.908;2023-01-15T12:28:21;16.02;;;7.18;;
70707;SDS011;58277;47.316;18.908;2023-01-15T12:33:44;15.02;;;7.03;;
70707;SDS011;58277;47.316;18.908;2023-01-15T12:41:22;16.80;;;7.32;;
70707;SDS011;58277;47.316;18.908;2023-01-15T12:44:09;14.05;;;6.70;;
70707;SDS011;58277;47.316;18.908;2023-01-15T12:46:50;14.60;;;6.80;;
70707;SDS011;58277;47.316;18.908;2023-01-15T12:51:53;13.43;;;6.88;;
70707;SDS011;58277;47.316;18.908;2023-01-15T12:54:27;13.25;;;6.40;;
70707;SDS011;58277;47.316;18.908;2023-01-15T12:56:59;15.57;;;7.10;;
70707;SDS011;58277;47.316;18.908;2023-01-15T13:02:31;15.03;;;6.80;;
70707;SDS011;58277;47.316;18.908;2023-01-15T13:05:17;15.60;;;7.22;;
70707;SDS011;58277;47.316;18.908;2023-01-15T13:07:43;15.93;;;6.57;;
70707;SDS011;58277;47.316;18.908;2023-01-15T13:10:16;13.63;;;6.53;;
70707;SDS011;58277;47.316;18.908;2023-01-15T13:12:43;14.50;;;6.82;;
70707;SDS011;58277;47.316;18.908;2023-01-15T13:15:06;14.57;;;6.73;;
70707;SDS011;58277;47.316;18.908;2023-01-15T13:17:40;15.43;;;7.13;;
70707;SDS011;58277;47.316;18.908;2023-01-15T13:25:45;14.20;;;6.47;;
70707;SDS011;58277;47.316;18.908;2023-01-15T13:28:33;14.27;;;7.00;;
70707;SDS011;58277;47.316;18.908;2023-01-15T13:31:29;15.27;;;6.90;;
70707;SDS011;58277;47.316;18.908;2023-01-15T13:34:03;15.07;;;6.88;;
70707;SDS011;58277;47.316;18.908;2023-01-15T13:36:36;15.23;;;6.80;;
70707;SDS011;58277;47.316;18.908;2023-01-15T13:39:06;15.10;;;6.70;;
70707;SDS011;58277;47.316;18.908;2023-01-15T13:41:36;13.83;;;6.53;;
70707;SDS011;58277;47.316;18.908;2023-01-15T13:46:44;14.43;;;6.95;;
70707;SDS011;58277;47.316;18.908;2023-01-15T13:49:18;15.32;;;7.00;;
70707;SDS011;58277;47.316;18.908;2023-01-15T13:51:48;14.25;;;6.70;;
70707;SDS011;58277;47.316;18.908;2023-01-15T13:54:12;13.90;;;6.50;;
70707;SDS011;58277;47.316;18.908;2023-01-15T13:56:39;16.50;;;6.90;;
70707;SDS011;58277;47.316;18.908;2023-01-15T13:59:02;16.90;;;6.75;;
70707;SDS011;58277;47.316;18.908;2023-01-15T14:01:32;14.55;;;6.82;;
70707;SDS011;58277;47.316;18.908;2023-01-15T14:06:43;15.87;;;6.57;;
70707;SDS011;58277;47.316;18.908;2023-01-15T14:09:09;16.73;;;6.80;;
70707;SDS011;58277;47.316;18.908;2023-01-15T14:17:01;15.77;;;6.78;;
70707;SDS011;58277;47.316;18.908;2023-01-15T14:27:45;15.52;;;6.45;;
70707;SDS011;58277;47.316;18.908;2023-01-15T14:30:22;14.00;;;6.05;;
70707;SDS011;58277;47.316;18.908;2023-01-15T14:35:41;17.25;;;6.45;;
70707;SDS011;58277;47.316;18.908;2023-01-15T14:38:07;14.30;;;6.38;;
70707;SDS011;58277;47.316;18.908;2023-01-15T14:40:36;15.15;;;6.78;;
70707;SDS011;58277;47.316;18.908;2023-01-15T14:43:07;16.13;;;7.22;;
70707;SDS011;58277;47.316;18.908;2023-01-15T14:45:41;17.00;;;7.10;;
70707;SDS011;58277;47.316;18.908;2023-01-15T14:51:10;17.80;;;7.07;;
70707;SDS011;58277;47.316;18.908;2023-01-15T14:53:37;17.52;;;7.03;;
70707;SDS011;58277;47.316;18.908;2023-01-15T14:56:06;16.67;;;7.40;;
70707;SDS011;58277;47.316;18.908;2023-01-15T15:04:24;16.92;;;7.25;;
70707;SDS011;58277;47.316;18.908;2023-01-15T15:09:28;13.05;;;6.38;;
70707;SDS011;58277;47.316;18.908;2023-01-15T15:12:16;17.73;;;7.70;;
70707;SDS011;58277;47.316;18.908;2023-01-15T15:23:10;16.80;;;7.57;;
70707;SDS011;58277;47.316;18.908;2023-01-15T15:25:38;16.67;;;7.57;;
70707;SDS011;58277;47.316;18.908;2023-01-15T15:28:02;18.08;;;7.65;;
70707;SDS011;58277;47.316;18.908;2023-01-15T15:30:27;17.63;;;7.95;;
70707;SDS011;58277;47.316;18.908;2023-01-15T15:32:54;18.50;;;8.15;;
70707;SDS011;58277;47.316;18.908;2023-01-15T15:35:26;17.13;;;7.45;;
70707;SDS011;58277;47.316;18.908;2023-01-15T15:37:50;18.53;;;7.83;;
70707;SDS011;58277;47.316;18.908;2023-01-15T15:40:14;18.55;;;7.63;;
70707;SDS011;58277;47.316;18.908;2023-01-15T15:42:40;18.20;;;8.68;;
70707;SDS011;58277;47.316;18.908;2023-01-15T15:45:28;18.55;;;8.15;;
70707;SDS011;58277;47.316;18.908;2023-01-15T15:48:21;21.23;;;8.75;;
70707;SDS011;58277;47.316;18.908;2023-01-15T15:51:26;17.07;;;7.50;;
70707;SDS011;58277;47.316;18.908;2023-01-15T15:54:22;19.83;;;8.65;;
70707;SDS011;58277;47.316;18.908;2023-01-15T15:56:56;20.75;;;8.27;;
70707;SDS011;58277;47.316;18.908;2023-01-15T15:59:26;22.75;;;8.27;;
70707;SDS011;58277;47.316;18.908;2023-01-15T16:01:52;19.98;;;8.15;;
70707;SDS011;58277;47.316;18.908;2023-01-15T16:04:16;20.47;;;8.67;;
70707;SDS011;58277;47.316;18.908;2023-01-15T16:06:40;19.65;;;8.40;;
70707;SDS011;58277;47.316;18.908;2023-01-15T16:09:07;20.70;;;8.52;;
70707;SDS011;58277;47.316;18.908;2023-01-15T16:11:32;19.92;;;8.65;;
70707;SDS011;58277;47.316;18.908;2023-01-15T16:13:56;18.75;;;8.95;;
70707;SDS011;58277;47.316;18.908;2023-01-15T16:16:23;20.97;;;8.60;;
70707;SDS011;58277;47.316;18.908;2023-01-15T16:18:49;22.85;;;8.90;;
70707;SDS011;58277;47.316;18.908;2023-01-15T16:21:28;19.33;;;9.07;;
70707;SDS011;58277;47.316;18.908;2023-01-15T16:24:00;22.20;;;8.88;;
70707;SDS011;58277;47.316;18.908;2023-01-15T16:26:29;22.00;;;9.65;;
70707;SDS011;58277;47.316;18.908;2023-01-15T16:28:56;22.43;;;9.63;;
70707;SDS011;58277;47.316;18.908;2023-01-15T16:31:21;22.63;;;9.30;;
70707;SDS011;58277;47.316;18.908;2023-01-15T16:33:44;21.98;;;9.43;;
70707;SDS011;58277;47.316;18.908;2023-01-15T16:36:08;24.25;;;10.18;;